Time;durP1;ratioP1;P1;durP2;ratioP2;P2;SDS_P1;SDS_P2;PMS_P1;PMS_P2;Temp;Humidity;BMP_temperature;BMP_pressure;BME280_temperature;BME280_humidity;BME280_pressure;Samples;Min_cycle;Max_cycle;Signal;HPM_P1;HPM_P2
2022/01/12 00:02:14;;;;;;;23.52;13.10;;;2.50;63.90;;;;;;4955635;28;20402;-75
2022/01/12 00:04:41;;;;;;;22.03;12.47;;;2.50;64.70;;;;;;4954802;28;20481;-75
2022/01/12 00:07:07;;;;;;;21.20;12.45;;;2.50;65.10;;;;;;4954309;28;20410;-75
2022/01/12 00:09:33;;;;;;;27.67;12.90;;;2.50;63.80;;;;;;4952070;29;20418;-75
2022/01/12 00:11:59;;;;;;;20.73;12.13;;;2.50;62.80;;;;;;4955106;28;20440;-76
2022/01/12 00:14:27;;;;;;;24.35;13.85;;;2.50;62.60;;;;;;4954874;28;20401;-74
2022/01/12 00:16:58;;;;;;;21.92;12.45;;;2.40;62.80;;;;;;4943498;28;20437;-76
2022/01/12 00:19:25;;;;;;;21.63;12.73;;;2.40;63.60;;;;;;4953107;29;20401;-76
2022/01/12 00:21:51;;;;;;;20.45;12.70;;;2.40;63.80;;;;;;4955155;28;20476;-75
2022/01/12 00:24:16;;;;;;;23.20;12.45;;;2.30;64.00;;;;;;4954934;29;20876;-74
2022/01/12 00:33:08;;;;;;;22.85;12.25;;;2.30;64.00;;;;;;4956749;29;20390;-76
2022/01/12 00:34:56;;;;;;;25.33;13.45;;;2.30;65.00;;;;;;4955155;29;20493;-72
2022/01/12 00:37:22;;;;;;;26.13;13.40;;;2.40;64.50;;;;;;4955700;28;20406;-73
2022/01/12 00:39:47;;;;;;;26.53;13.90;;;2.40;64.00;;;;;;4959964;29;20394;-73
2022/01/12 00:42:13;;;;;;;24.50;12.90;;;2.40;63.80;;;;;;4954789;29;20409;-74
2022/01/12 00:44:44;;;;;;;24.33;13.60;;;2.40;63.70;;;;;;4951597;29;20409;-73
2022/01/12 00:47:11;;;;;;;21.45;12.95;;;2.40;62.90;;;;;;4952754;29;20424;-73
2022/01/12 00:49:36;;;;;;;23.08;12.75;;;2.40;62.80;;;;;;4952878;29;20394;-73
2022/01/12 00:52:02;;;;;;;21.58;13.05;;;2.30;63.50;;;;;;4952840;28;20421;-73
2022/01/12 00:54:28;;;;;;;20.88;12.77;;;2.30;64.00;;;;;;4938431;29;20435;-74
2022/01/12 00:56:53;;;;;;;25.40;13.13;;;2.40;63.30;;;;;;4933628;29;20427;-73
2022/01/12 00:59:19;;;;;;;21.90;11.80;;;2.40;62.80;;;;;;4937141;29;20819;-74
2022/01/12 01:01:45;;;;;;;20.40;12.47;;;2.50;61.20;;;;;;4951383;29;20397;-73
2022/01/12 01:04:11;;;;;;;18.88;11.90;;;2.50;60.30;;;;;;4952871;29;20433;-73
2022/01/12 01:06:37;;;;;;;26.63;12.55;;;2.50;60.60;;;;;;4953358;29;20417;-73
2022/01/12 01:09:04;;;;;;;19.63;12.80;;;2.40;60.90;;;;;;4947717;29;20411;-74
2022/01/12 01:11:30;;;;;;;23.38;12.02;;;2.40;61.30;;;;;;4953219;29;20409;-74
2022/01/12 01:16:28;;;;;;;19.83;12.30;;;2.30;63.10;;;;;;4953637;29;20394;-75
2022/01/12 01:27:06;;;;;;;24.38;11.98;;;2.50;62.90;;;;;;4956222;29;20827;-73
2022/01/12 01:29:32;;;;;;;21.87;12.13;;;2.50;61.40;;;;;;4955766;29;20410;-73
2022/01/12 01:31:58;;;;;;;20.50;11.90;;;2.70;60.80;;;;;;4956733;28;20409;-73
2022/01/12 01:34:25;;;;;;;21.17;12.02;;;2.70;59.70;;;;;;4954859;29;20398;-74
2022/01/12 01:36:52;;;;;;;16.17;10.80;;;2.70;58.70;;;;;;4955978;29;20394;-74
2022/01/12 01:39:21;;;;;;;23.25;12.88;;;2.70;58.60;;;;;;4954819;28;20393;-74
2022/01/12 01:42:15;;;;;;;20.83;12.02;;;2.70;59.30;;;;;;4953494;28;20561;-74
2022/01/12 01:55:27;;;;;;;22.77;12.40;;;2.90;57.80;;;;;;4956581;29;20929;-74
2022/01/12 01:57:53;;;;;;;17.15;11.25;;;2.90;57.10;;;;;;4963206;29;20398;-75
2022/01/12 02:00:23;;;;;;;20.20;11.75;;;3.00;56.00;;;;;;4967095;29;20398;-75
2022/01/12 02:02:50;;;;;;;20.30;11.80;;;3.00;55.90;;;;;;4964554;28;20859;-74
2022/01/12 02:05:16;;;;;;;19.75;11.55;;;2.90;55.80;;;;;;4957206;29;20818;-73
2022/01/12 02:07:43;;;;;;;19.77;11.50;;;3.00;55.80;;;;;;4956920;29;20389;-75
2022/01/12 02:10:09;;;;;;;20.38;12.00;;;3.10;55.30;;;;;;4956055;28;20413;-73
2022/01/12 02:12:36;;;;;;;19.10;11.00;;;3.10;55.20;;;;;;4952496;28;20534;-73
2022/01/12 02:15:11;;;;;;;18.52;11.30;;;3.20;54.40;;;;;;4950920;29;20398;-73
2022/01/12 02:17:42;;;;;;;19.75;10.90;;;3.20;53.80;;;;;;4955779;29;20409;-73
2022/01/12 02:39:56;;;;;;;20.35;11.60;;;3.00;54.40;;;;;;4945138;28;20405;-73
2022/01/12 02:42:23;;;;;;;19.85;11.45;;;3.00;55.00;;;;;;4957248;28;20412;-73
2022/01/12 02:53:41;;;;;;;20.20;11.20;;;2.80;57.70;;;;;;4903887;29;20413;-73
2022/01/12 02:56:12;;;;;;;22.45;12.20;;;2.80;57.50;;;;;;4918141;29;20386;-74
2022/01/12 02:58:40;;;;;;;20.58;11.90;;;2.80;59.40;;;;;;4949324;29;20942;-73
2022/01/12 03:03:37;;;;;;;20.55;12.32;;;2.70;58.50;;;;;;4956042;29;20401;-73
2022/01/12 03:06:05;;;;;;;21.85;12.55;;;2.80;58.50;;;;;;4955877;29;20489;-72
2022/01/12 03:08:37;;;;;;;20.67;12.40;;;2.80;58.80;;;;;;4956304;29;20381;-72
2022/01/12 03:11:10;;;;;;;24.90;12.60;;;2.80;58.90;;;;;;4941771;29;20812;-73
2022/01/12 03:13:35;;;;;;;24.57;12.50;;;2.80;59.30;;;;;;4943369;29;20403;-73
2022/01/12 03:16:11;;;;;;;20.88;12.80;;;2.80;59.30;;;;;;4951489;29;20401;-73
2022/01/12 03:18:36;;;;;;;27.02;12.90;;;2.90;58.20;;;;;;4958507;29;20385;-72
2022/01/12 03:21:02;;;;;;;20.25;12.25;;;2.90;57.60;;;;;;4955436;28;20413;-72
2022/01/12 03:23:28;;;;;;;22.50;12.73;;;2.90;57.40;;;;;;4955818;29;20433;-73
2022/01/12 03:25:54;;;;;;;21.90;13.07;;;2.80;58.20;;;;;;4957886;29;20448;-73
2022/01/12 03:28:20;;;;;;;21.65;12.18;;;2.80;58.00;;;;;;4958405;29;20406;-74
2022/01/12 03:31:06;;;;;;;20.92;12.40;;;2.80;58.20;;;;;;4956782;29;20903;-72
2022/01/12 03:33:49;;;;;;;20.58;12.35;;;2.90;57.50;;;;;;4954562;29;20449;-72
2022/01/12 03:39:03;;;;;;;22.42;12.50;;;2.90;57.50;;;;;;4955271;29;20409;-75
2022/01/12 03:41:32;;;;;;;20.05;11.57;;;2.90;56.80;;;;;;4955026;29;20409;-73
2022/01/12 03:44:00;;;;;;;19.55;12.07;;;3.00;56.40;;;;;;4956006;28;20480;-73
2022/01/12 03:46:32;;;;;;;19.85;11.55;;;3.00;55.90;;;;;;4955600;28;20394;-72
2022/01/12 03:48:58;;;;;;;22.45;12.20;;;3.00;56.20;;;;;;4954951;28;20433;-72
2022/01/12 03:51:23;;;;;;;19.85;12.30;;;3.10;55.90;;;;;;4954558;29;20448;-73
2022/01/12 03:53:49;;;;;;;20.42;11.95;;;3.10;55.70;;;;;;4950671;29;20402;-73
2022/01/12 03:56:15;;;;;;;21.73;11.80;;;3.10;55.10;;;;;;4954670;29;20409;-74
2022/01/12 03:58:41;;;;;;;21.80;11.40;;;3.20;55.90;;;;;;4954431;29;20397;-73
2022/01/12 04:01:07;;;;;;;18.53;11.97;;;3.20;55.00;;;;;;4954804;28;20763;-73
2022/01/12 04:03:40;;;;;;;20.73;11.30;;;3.30;54.80;;;;;;4954650;29;20402;-73
2022/01/12 04:08:50;;;;;;;18.52;11.18;;;3.40;53.60;;;;;;4951754;29;20846;-73
2022/01/12 04:11:16;;;;;;;17.60;11.30;;;3.40;53.10;;;;;;4935186;29;20502;-71
2022/01/12 04:13:43;;;;;;;19.70;12.10;;;3.40;53.60;;;;;;4934969;29;20881;-73
2022/01/12 04:16:11;;;;;;;19.45;11.20;;;3.40;53.20;;;;;;4935739;29;20400;-73
2022/01/12 04:18:37;;;;;;;19.83;12.07;;;3.50;53.90;;;;;;4952886;29;20402;-74
2022/01/12 04:21:06;;;;;;;19.20;11.60;;;3.40;52.90;;;;;;4954127;28;20402;-72
2022/01/12 04:23:32;;;;;;;18.50;11.50;;;3.50;53.30;;;;;;4954328;29;20482;-73
2022/01/12 04:26:00;;;;;;;19.02;11.15;;;3.50;52.20;;;;;;4953077;29;20409;-73
2022/01/12 04:28:28;;;;;;;19.73;11.57;;;3.50;53.40;;;;;;4954686;29;20759;-73
2022/01/12 04:30:55;;;;;;;19.17;11.15;;;3.50;52.20;;;;;;4954029;29;20966;-73
2022/01/12 04:33:22;;;;;;;18.77;11.65;;;3.50;52.30;;;;;;4954595;28;20440;-73
2022/01/12 04:35:54;;;;;;;21.17;11.75;;;3.50;52.20;;;;;;4954197;28;20849;-74
2022/01/12 04:38:22;;;;;;;17.75;11.77;;;3.60;52.80;;;;;;4954002;28;20457;-74
2022/01/12 04:40:48;;;;;;;18.73;11.95;;;3.50;52.30;;;;;;4953920;28;20868;-73
2022/01/12 04:43:15;;;;;;;20.07;11.53;;;3.60;51.90;;;;;;4951128;28;20386;-73
2022/01/12 04:48:33;;;;;;;20.52;11.32;;;3.50;52.70;;;;;;4956384;29;20812;-73
2022/01/12 04:50:59;;;;;;;19.70;11.65;;;3.50;53.10;;;;;;4958149;28;20465;-74
2022/01/12 04:53:25;;;;;;;17.43;10.57;;;3.60;52.10;;;;;;4950391;29;20475;-73
2022/01/12 04:55:52;;;;;;;20.52;11.45;;;3.60;51.80;;;;;;4940785;29;20395;-74
2022/01/12 04:58:18;;;;;;;17.63;11.82;;;3.60;51.60;;;;;;4960115;29;20469;-74
2022/01/12 05:00:45;;;;;;;18.73;11.35;;;3.70;50.40;;;;;;4961567;29;20390;-73
2022/01/12 05:13:54;;;;;;;20.42;11.55;;;3.70;50.30;;;;;;4934849;29;20952;-74
2022/01/12 05:16:21;;;;;;;21.33;12.10;;;3.60;50.20;;;;;;4934218;29;20426;-73
2022/01/12 05:18:48;;;;;;;21.55;11.70;;;3.60;51.00;;;;;;4934441;29;20414;-73
2022/01/12 05:21:15;;;;;;;21.20;12.18;;;3.60;51.10;;;;;;4943738;29;20406;-73
2022/01/12 05:23:41;;;;;;;19.77;11.15;;;3.60;50.90;;;;;;4952570;28;20406;-73
2022/01/12 05:26:07;;;;;;;19.03;12.00;;;3.60;50.80;;;;;;4953148;29;20464;-74
2022/01/12 05:28:34;;;;;;;21.17;12.73;;;3.70;50.90;;;;;;4952768;29;20816;-72
2022/01/12 05:31:01;;;;;;;18.58;11.40;;;3.70;50.10;;;;;;4951318;28;20425;-74
2022/01/12 05:33:28;;;;;;;20.27;12.17;;;3.70;51.20;;;;;;4951989;29;20406;-73
2022/01/12 05:35:58;;;;;;;18.83;11.40;;;3.80;51.00;;;;;;4951563;29;20417;-73
2022/01/12 05:38:24;;;;;;;19.90;11.55;;;3.80;49.60;;;;;;4952962;28;20763;-75
2022/01/12 05:40:55;;;;;;;17.13;11.45;;;3.80;49.90;;;;;;4951832;29;20382;-73
2022/01/12 05:43:24;;;;;;;18.90;12.20;;;3.80;49.80;;;;;;4953074;28;20910;-73
2022/01/12 05:45:52;;;;;;;25.45;12.85;;;3.70;50.70;;;;;;4953151;28;20406;-75
2022/01/12 05:50:47;;;;;;;19.02;11.25;;;3.70;51.30;;;;;;4953166;29;20465;-74
2022/01/12 05:53:12;;;;;;;23.08;12.23;;;3.60;51.90;;;;;;4949166;28;21058;-74
2022/01/12 05:55:38;;;;;;;21.90;12.37;;;3.60;52.20;;;;;;4944917;29;20488;-73
2022/01/12 05:58:04;;;;;;;20.80;12.77;;;3.70;51.60;;;;;;4950572;29;20965;-73
2022/01/12 06:00:30;;;;;;;21.30;12.40;;;3.70;51.40;;;;;;4951781;29;20402;-72
2022/01/12 06:02:56;;;;;;;18.23;11.23;;;3.70;51.40;;;;;;4953047;28;20398;-72
2022/01/12 06:05:23;;;;;;;20.38;11.10;;;3.70;51.10;;;;;;4953237;29;20385;-72
2022/01/12 06:07:51;;;;;;;22.55;12.60;;;3.60;51.30;;;;;;4951120;29;21030;-73
2022/01/12 06:10:18;;;;;;;25.00;12.82;;;3.60;51.70;;;;;;4938601;28;20450;-73
2022/01/12 06:12:44;;;;;;;22.20;12.27;;;3.50;52.60;;;;;;4933827;29;20943;-72
2022/01/12 06:15:10;;;;;;;20.23;12.27;;;3.40;53.00;;;;;;4935926;29;20873;-74
2022/01/12 06:17:37;;;;;;;22.33;12.25;;;3.40;53.40;;;;;;4944075;29;20408;-73
2022/01/12 06:20:04;;;;;;;22.25;12.10;;;3.40;53.60;;;;;;4953520;28;20452;-72
2022/01/12 06:22:30;;;;;;;20.45;11.75;;;3.40;52.60;;;;;;4954573;28;20413;-73
2022/01/12 06:24:57;;;;;;;21.33;13.13;;;3.30;53.20;;;;;;4951942;29;20402;-73
2022/01/12 06:27:27;;;;;;;23.60;12.73;;;3.30;53.90;;;;;;4953406;28;20425;-72
2022/01/12 06:30:15;;;;;;;23.08;12.02;;;3.40;53.60;;;;;;4952362;28;20453;-73
2022/01/12 06:32:40;;;;;;;25.83;13.43;;;3.40;53.20;;;;;;4951545;28;20428;-72
2022/01/12 06:35:06;;;;;;;19.37;12.77;;;3.40;53.00;;;;;;4953862;28;20406;-73
2022/01/12 06:37:32;;;;;;;24.48;13.40;;;3.50;53.50;;;;;;4955555;28;20906;-71
2022/01/12 06:39:58;;;;;;;22.10;12.90;;;3.40;53.20;;;;;;4955608;29;20448;-72
2022/01/12 06:42:26;;;;;;;21.47;12.90;;;3.40;53.70;;;;;;4955351;28;20910;-72
2022/01/12 06:44:52;;;;;;;21.67;13.35;;;3.40;53.90;;;;;;4954163;29;20421;-71
2022/01/12 06:47:20;;;;;;;31.67;14.00;;;3.50;53.20;;;;;;4955645;29;20465;-73
2022/01/12 06:49:46;;;;;;;20.65;13.05;;;3.60;52.80;;;;;;4954700;29;20410;-72
2022/01/12 06:52:11;;;;;;;20.20;11.90;;;3.70;51.80;;;;;;4951579;29;20500;-71
2022/01/12 06:54:37;;;;;;;21.87;13.20;;;3.70;51.30;;;;;;4951111;29;20402;-71
2022/01/12 06:57:03;;;;;;;22.77;12.73;;;3.60;51.80;;;;;;4954908;29;20883;-71
2022/01/12 06:59:28;;;;;;;21.90;12.60;;;3.60;51.70;;;;;;4954353;29;20402;-73
2022/01/12 07:01:54;;;;;;;22.77;13.00;;;3.70;51.30;;;;;;4954141;28;20413;-74
2022/01/12 07:04:20;;;;;;;22.47;12.60;;;3.80;51.00;;;;;;4942514;29;20434;-76
2022/01/12 07:06:46;;;;;;;22.70;13.15;;;3.80;51.40;;;;;;4954512;29;20441;-75
2022/01/12 07:09:11;;;;;;;22.15;12.90;;;3.80;51.10;;;;;;4947991;29;20461;-74
2022/01/12 07:11:37;;;;;;;21.53;12.83;;;3.80;51.20;;;;;;4952759;28;20421;-75
2022/01/12 07:14:03;;;;;;;19.80;12.60;;;3.80;50.20;;;;;;4954754;29;20405;-74
2022/01/12 07:16:28;;;;;;;20.20;11.90;;;3.80;50.20;;;;;;4953085;29;20412;-74
2022/01/12 07:18:59;;;;;;;20.10;11.93;;;3.80;50.00;;;;;;4954801;29;20402;-76
2022/01/12 07:21:29;;;;;;;25.00;13.43;;;3.80;50.20;;;;;;4950255;29;20449;-76
2022/01/12 07:23:56;;;;;;;23.17;13.40;;;3.80;49.90;;;;;;4953238;28;20433;-76
2022/01/12 07:26:22;;;;;;;28.05;12.50;;;3.80;49.40;;;;;;4956272;29;20437;-77
2022/01/12 07:28:49;;;;;;;22.05;13.10;;;3.90;48.90;;;;;;4958477;29;20413;-75
2022/01/12 07:31:14;;;;;;;23.08;13.10;;;3.90;48.70;;;;;;4954551;28;20418;-76
2022/01/12 07:33:40;;;;;;;22.17;13.23;;;3.90;48.80;;;;;;4945414;29;20755;-75
2022/01/12 07:36:06;;;;;;;20.13;12.40;;;3.90;49.10;;;;;;4951538;29;20412;-75
2022/01/12 07:38:31;;;;;;;21.97;12.67;;;3.80;49.80;;;;;;4963973;28;20415;-75
2022/01/12 07:40:57;;;;;;;21.48;13.93;;;3.90;50.00;;;;;;4960670;28;20849;-75
2022/01/12 07:43:23;;;;;;;20.13;12.55;;;3.90;50.30;;;;;;4958301;29;20408;-76
2022/01/12 07:45:48;;;;;;;22.93;13.40;;;4.00;49.80;;;;;;4957070;28;20427;-74
2022/01/12 07:48:14;;;;;;;20.60;12.83;;;4.00;49.90;;;;;;4952824;29;20409;-75
2022/01/12 07:50:41;;;;;;;23.30;12.70;;;4.00;49.30;;;;;;4960128;29;20474;-74
2022/01/12 07:53:07;;;;;;;25.88;13.38;;;4.10;48.40;;;;;;4963318;28;20512;-74
2022/01/12 07:55:33;;;;;;;19.85;13.52;;;4.10;48.50;;;;;;4960277;28;20402;-73
2022/01/12 07:57:59;;;;;;;30.60;14.80;;;4.10;48.50;;;;;;4966316;29;20446;-73
2022/01/12 08:00:25;;;;;;;25.80;14.32;;;4.20;48.10;;;;;;4960025;28;20409;-73
2022/01/12 08:02:51;;;;;;;27.00;13.98;;;4.20;48.00;;;;;;4951171;29;20511;-73
2022/01/12 08:05:18;;;;;;;22.88;13.93;;;4.10;47.90;;;;;;4955378;28;20476;-74
2022/01/12 08:07:45;;;;;;;22.45;12.77;;;4.10;48.30;;;;;;4949646;28;20431;-73
2022/01/12 08:10:10;;;;;;;29.58;13.90;;;4.10;48.90;;;;;;4952396;29;20492;-72
2022/01/12 08:12:37;;;;;;;24.73;13.90;;;4.20;49.00;;;;;;4957377;29;21299;-76
2022/01/12 08:15:05;;;;;;;23.20;14.13;;;4.20;48.70;;;;;;4966073;28;20402;-73
2022/01/12 08:17:32;;;;;;;23.08;13.60;;;4.30;48.80;;;;;;4958367;28;20408;-73
2022/01/12 08:19:58;;;;;;;24.45;14.43;;;4.30;48.40;;;;;;4942215;29;20415;-75
2022/01/12 08:22:24;;;;;;;24.50;14.15;;;4.30;48.00;;;;;;4953011;28;20421;-74
2022/01/12 08:24:49;;;;;;;24.83;14.63;;;4.30;48.10;;;;;;4955293;29;20389;-74
2022/01/12 08:27:15;;;;;;;23.73;14.27;;;4.30;48.70;;;;;;4954159;29;20405;-74
2022/01/12 08:29:41;;;;;;;23.67;14.10;;;4.30;48.80;;;;;;4954792;29;20424;-72
2022/01/12 08:32:07;;;;;;;23.40;13.83;;;4.30;48.50;;;;;;4954948;28;20417;-74
2022/01/12 08:34:33;;;;;;;25.27;14.68;;;4.30;49.20;;;;;;4955399;28;20397;-75
2022/01/12 08:36:58;;;;;;;24.73;14.40;;;4.40;48.50;;;;;;4955241;28;20796;-74
2022/01/12 08:39:24;;;;;;;24.50;14.03;;;4.40;47.90;;;;;;4954670;29;20432;-73
2022/01/12 08:41:50;;;;;;;29.80;14.73;;;4.40;47.50;;;;;;4954490;29;20385;-73
2022/01/12 08:44:15;;;;;;;25.73;14.90;;;4.40;48.40;;;;;;4952449;28;20415;-75
2022/01/12 08:46:41;;;;;;;25.80;15.15;;;4.50;49.60;;;;;;4948607;29;20411;-75
2022/01/12 08:49:08;;;;;;;29.50;14.68;;;4.50;49.10;;;;;;4954451;29;20394;-74
2022/01/12 08:51:35;;;;;;;23.38;13.70;;;4.50;49.00;;;;;;4947490;28;20464;-74
2022/01/12 08:54:00;;;;;;;21.73;14.10;;;4.50;48.80;;;;;;4952137;28;20460;-74
2022/01/12 08:56:26;;;;;;;31.40;15.30;;;4.60;48.00;;;;;;4954384;29;20488;-73
2022/01/12 08:58:52;;;;;;;25.47;15.30;;;4.70;47.30;;;;;;4953897;28;20406;-75
2022/01/12 09:01:18;;;;;;;27.53;15.80;;;4.70;46.90;;;;;;4957348;28;20410;-74
2022/01/12 09:03:44;;;;;;;29.60;15.68;;;4.70;47.00;;;;;;4965257;28;20423;-74
2022/01/12 09:06:10;;;;;;;27.07;14.43;;;4.70;47.20;;;;;;4952782;28;20434;-74
2022/01/12 09:08:38;;;;;;;25.63;15.20;;;4.70;46.90;;;;;;4953627;29;20484;-74
2022/01/12 09:11:04;;;;;;;25.63;14.70;;;4.70;47.60;;;;;;4947358;28;20421;-73
2022/01/12 09:13:30;;;;;;;26.20;14.77;;;4.70;47.50;;;;;;4953748;28;20460;-74
2022/01/12 09:15:56;;;;;;;24.58;14.60;;;4.80;47.50;;;;;;4953212;28;20402;-73
2022/01/12 09:18:22;;;;;;;26.25;15.48;;;4.90;47.30;;;;;;4936943;29;20484;-73
2022/01/12 09:20:49;;;;;;;27.97;14.70;;;4.90;46.70;;;;;;4933928;29;20473;-73
2022/01/12 09:23:15;;;;;;;28.75;15.88;;;4.90;46.70;;;;;;4943686;29;20398;-74
2022/01/12 09:25:41;;;;;;;44.83;18.85;;;4.90;47.00;;;;;;4953108;28;20537;-73
2022/01/12 09:28:11;;;;;;;45.13;19.80;;;5.20;49.00;;;;;;4951438;28;20404;-73
2022/01/12 09:30:36;;;;;;;49.70;20.10;;;5.20;49.10;;;;;;4946169;29;20405;-74
2022/01/12 09:33:03;;;;;;;42.57;18.60;;;5.20;50.20;;;;;;4952861;28;20922;-74
2022/01/12 09:35:29;;;;;;;50.85;19.50;;;5.20;50.30;;;;;;4950339;28;20407;-73
2022/01/12 09:37:55;;;;;;;54.95;21.27;;;5.10;50.50;;;;;;4952397;29;20390;-73
2022/01/12 09:40:21;;;;;;;50.38;21.50;;;5.20;51.50;;;;;;4954871;29;20402;-73
2022/01/12 09:42:48;;;;;;;46.63;21.40;;;5.20;51.50;;;;;;4953016;28;20406;-73
2022/01/12 09:45:17;;;;;;;49.80;20.30;;;5.20;51.20;;;;;;4952712;28;20501;-73
2022/01/12 09:47:49;;;;;;;50.95;20.13;;;5.20;51.80;;;;;;4951767;29;20791;-72
2022/01/12 09:50:22;;;;;;;44.28;19.38;;;5.20;52.10;;;;;;4952542;28;20412;-73
2022/01/12 09:52:48;;;;;;;44.90;18.98;;;5.30;51.90;;;;;;4952340;28;20407;-73
2022/01/12 09:55:14;;;;;;;55.60;21.77;;;5.30;51.30;;;;;;4959085;28;20460;-74
2022/01/12 09:57:39;;;;;;;47.38;20.00;;;5.30;50.80;;;;;;4953048;29;20844;-72
2022/01/12 10:00:07;;;;;;;50.97;19.93;;;5.30;51.00;;;;;;4957450;29;20434;-73
2022/01/12 10:02:33;;;;;;;51.38;21.10;;;5.30;50.60;;;;;;4961931;28;20406;-73
2022/01/12 10:05:06;;;;;;;48.38;21.35;;;5.30;51.10;;;;;;4953336;29;20441;-74
2022/01/12 10:07:33;;;;;;;55.03;20.90;;;5.30;51.80;;;;;;4953409;28;20479;-74
2022/01/12 10:10:06;;;;;;;48.55;20.13;;;5.30;52.20;;;;;;4956692;28;20840;-74
2022/01/12 10:12:32;;;;;;;56.13;20.00;;;5.50;51.50;;;;;;4941885;29;20453;-73
2022/01/12 10:15:01;;;;;;;53.40;21.45;;;5.50;50.10;;;;;;4957269;28;20405;-73
2022/01/12 10:17:36;;;;;;;50.38;19.77;;;5.60;49.80;;;;;;4956787;29;20398;-74
2022/01/12 10:20:13;;;;;;;49.00;19.13;;;5.60;49.70;;;;;;4956666;28;20773;-74
2022/01/12 10:23:00;;;;;;;50.47;20.02;;;5.80;49.80;;;;;;4957331;28;20781;-74
2022/01/12 10:25:28;;;;;;;49.92;21.42;;;5.80;48.90;;;;;;4957824;29;20522;-73
2022/01/12 10:27:54;;;;;;;53.67;21.92;;;5.90;47.80;;;;;;4958195;28;20424;-74
2022/01/12 10:30:20;;;;;;;56.70;21.23;;;5.80;47.70;;;;;;4956048;28;20487;-73
2022/01/12 10:32:46;;;;;;;58.87;21.53;;;5.80;47.70;;;;;;4958444;28;20533;-74
2022/01/12 10:35:12;;;;;;;55.65;22.88;;;5.80;48.00;;;;;;4956448;29;20429;-74
2022/01/12 10:37:37;;;;;;;53.63;21.20;;;5.70;48.40;;;;;;4956997;28;20404;-74
2022/01/12 10:40:03;;;;;;;53.60;21.50;;;5.80;49.00;;;;;;4956775;29;20479;-73
2022/01/12 10:42:30;;;;;;;52.90;21.33;;;5.80;48.30;;;;;;4956714;28;20394;-74
2022/01/12 10:45:01;;;;;;;51.78;21.45;;;5.80;48.90;;;;;;4958132;28;20416;-74
2022/01/12 10:47:29;;;;;;;57.05;23.08;;;5.70;49.70;;;;;;4961897;28;20513;-74
2022/01/12 10:49:55;;;;;;;65.05;23.73;;;5.80;49.00;;;;;;4961097;28;20402;-74
2022/01/12 10:52:29;;;;;;;58.63;23.40;;;5.70;50.00;;;;;;4965006;28;20975;-74
2022/01/12 10:54:58;;;;;;;65.22;23.77;;;5.70;50.20;;;;;;4966577;28;20410;-74
2022/01/12 10:57:37;;;;;;;60.92;22.98;;;5.70;50.80;;;;;;4961829;29;20497;-73
2022/01/12 11:00:18;;;;;;;68.05;25.98;;;5.90;52.70;;;;;;4963232;29;20450;-73
2022/01/12 11:02:46;;;;;;;67.32;25.75;;;6.00;51.00;;;;;;4956419;28;20398;-73
2022/01/12 11:05:12;;;;;;;60.78;25.83;;;5.90;52.50;;;;;;4955742;29;20406;-72
2022/01/12 11:07:37;;;;;;;73.20;25.20;;;5.70;53.40;;;;;;4955380;29;20385;-73
2022/01/12 11:10:06;;;;;;;62.42;24.02;;;6.10;51.30;;;;;;4954201;29;20410;-73
2022/01/12 11:12:35;;;;;;;71.10;24.77;;;6.00;51.10;;;;;;4946494;29;20462;-72
2022/01/12 11:15:03;;;;;;;73.33;27.57;;;5.90;53.20;;;;;;4955630;28;20424;-73
2022/01/12 11:17:29;;;;;;;64.63;25.90;;;5.80;54.40;;;;;;4953781;29;20408;-73
2022/01/12 11:20:22;;;;;;;66.27;26.70;;;5.60;57.30;;;;;;4956234;29;20397;-73
2022/01/12 11:23:11;;;;;;;78.53;27.47;;;5.80;54.70;;;;;;4955272;29;20405;-73
2022/01/12 11:25:48;;;;;;;70.15;27.52;;;5.60;57.50;;;;;;4955045;28;20983;-73
2022/01/12 11:28:18;;;;;;;77.47;26.47;;;5.80;57.90;;;;;;4955471;28;20417;-73
2022/01/12 11:30:50;;;;;;;78.07;27.95;;;5.90;54.40;;;;;;4953955;28;20476;-74
2022/01/12 11:33:21;;;;;;;71.28;27.85;;;6.00;53.40;;;;;;4955525;28;20829;-73
2022/01/12 11:35:50;;;;;;;81.13;28.58;;;6.00;53.50;;;;;;4954632;29;20394;-73
2022/01/12 11:38:36;;;;;;;76.38;27.35;;;6.00;55.30;;;;;;4954401;29;20394;-73
2022/01/12 11:41:13;;;;;;;79.50;27.25;;;6.10;53.80;;;;;;4952015;29;20574;-73
2022/01/12 11:44:01;;;;;;;75.78;27.88;;;6.00;53.30;;;;;;4953910;29;20911;-73
2022/01/12 11:46:39;;;;;;;67.45;25.38;;;5.90;54.00;;;;;;4954477;29;20405;-73
2022/01/12 11:49:05;;;;;;;83.10;28.08;;;5.80;54.70;;;;;;4956629;28;20394;-74
2022/01/12 11:51:40;;;;;;;84.90;29.80;;;5.50;58.00;;;;;;4956813;28;20561;-74
2022/01/12 11:54:15;;;;;;;88.70;29.13;;;5.50;60.60;;;;;;4943801;29;20407;-72
2022/01/12 11:56:52;;;;;;;87.73;28.80;;;5.50;59.90;;;;;;4953865;29;20910;-73
2022/01/12 11:59:18;;;;;;;90.22;29.25;;;5.60;59.00;;;;;;4952779;29;20413;-73
2022/01/12 12:01:49;;;;;;;82.47;29.25;;;5.70;58.80;;;;;;4953592;29;20778;-73
2022/01/12 12:04:28;;;;;;;91.45;30.05;;;5.60;58.00;;;;;;4954607;28;20402;-73
2022/01/12 12:07:10;;;;;;;85.00;31.30;;;5.40;60.20;;;;;;4955169;28;20405;-73
2022/01/12 12:09:48;;;;;;;92.38;31.73;;;5.30;63.20;;;;;;4955611;28;20417;-73
2022/01/12 12:12:17;;;;;;;99.60;33.03;;;5.40;62.50;;;;;;4955203;28;20472;-73
2022/01/12 12:14:46;;;;;;;94.68;33.50;;;5.50;62.50;;;;;;4954689;28;20405;-75
2022/01/12 12:17:11;;;;;;;112.85;35.67;;;5.60;61.10;;;;;;4957973;28;20397;-74
2022/01/12 12:19:37;;;;;;;98.03;36.17;;;5.70;61.30;;;;;;4962905;29;20406;-74
2022/01/12 12:22:30;;;;;;;93.97;33.63;;;5.80;59.70;;;;;;4961432;28;20468;-74
2022/01/12 12:24:58;;;;;;;97.20;34.58;;;5.60;61.70;;;;;;4969572;28;20454;-74
2022/01/12 12:27:26;;;;;;;105.95;36.05;;;5.60;64.80;;;;;;4954730;28;20764;-73
2022/01/12 12:29:53;;;;;;;107.90;37.45;;;5.70;63.50;;;;;;4956391;28;20409;-74
2022/01/12 12:32:20;;;;;;;109.90;36.55;;;5.70;63.60;;;;;;4948276;28;20421;-74
2022/01/12 12:34:46;;;;;;;104.20;34.42;;;5.70;65.10;;;;;;4962456;29;20841;-74
2022/01/12 12:37:15;;;;;;;87.45;34.03;;;6.20;58.80;;;;;;4961238;29;20444;-74
2022/01/12 12:39:46;;;;;;;101.18;36.33;;;6.40;56.00;;;;;;4957039;29;20456;-73
2022/01/12 12:42:20;;;;;;;102.72;35.22;;;6.40;55.30;;;;;;4961131;28;20393;-73
2022/01/12 12:44:47;;;;;;;101.03;35.45;;;6.30;54.60;;;;;;4953382;28;20863;-74
2022/01/12 12:47:18;;;;;;;109.07;34.97;;;6.10;55.80;;;;;;4952761;28;20505;-74
2022/01/12 12:49:52;;;;;;;98.00;36.00;;;5.90;58.20;;;;;;4953261;28;20405;-72
2022/01/12 12:52:25;;;;;;;102.35;35.10;;;5.80;59.30;;;;;;4950746;28;20733;-74
2022/01/12 12:54:51;;;;;;;103.90;36.55;;;5.60;62.20;;;;;;4944351;28;20788;-74
2022/01/12 12:57:21;;;;;;;105.28;37.92;;;5.50;64.20;;;;;;4952616;29;20402;-74
2022/01/12 13:00:11;;;;;;;118.97;39.67;;;5.40;66.70;;;;;;4952847;28;20456;-73
2022/01/12 13:02:43;;;;;;;109.82;38.53;;;5.40;67.40;;;;;;4951568;29;20417;-74
2022/01/12 13:05:12;;;;;;;111.70;40.08;;;5.50;68.00;;;;;;4953174;28;20794;-74
2022/01/12 13:07:42;;;;;;;107.50;38.97;;;5.60;68.30;;;;;;4951968;29;20450;-74
2022/01/12 13:10:14;;;;;;;118.40;40.30;;;5.60;67.30;;;;;;4953478;28;20503;-75
2022/01/12 13:12:52;;;;;;;127.53;41.08;;;5.70;69.60;;;;;;4948028;29;20419;-74
2022/01/12 13:15:30;;;;;;;118.43;41.75;;;5.80;66.50;;;;;;4944611;28;20485;-75
2022/01/12 13:18:05;;;;;;;123.47;42.75;;;5.90;65.30;;;;;;4952801;29;20488;-74
2022/01/12 13:23:27;;;;;;;117.90;43.37;;;5.90;66.10;;;;;;4953360;29;20959;-73
2022/01/12 13:25:55;;;;;;;128.57;44.72;;;6.00;64.40;;;;;;4952572;29;20406;-75
2022/01/12 13:28:21;;;;;;;127.07;44.58;;;6.10;63.50;;;;;;4935429;29;20783;-74
2022/01/12 13:31:05;;;;;;;126.32;45.70;;;6.20;62.00;;;;;;4953052;28;20456;-74
2022/01/12 13:33:33;;;;;;;117.97;42.42;;;6.20;63.10;;;;;;4944115;29;20517;-73
2022/01/12 13:36:12;;;;;;;133.60;46.77;;;6.30;59.80;;;;;;4952472;29;20509;-73
2022/01/12 13:38:38;;;;;;;124.10;45.25;;;6.30;59.30;;;;;;4952604;29;20402;-73
2022/01/12 13:41:26;;;;;;;125.28;46.83;;;6.20;60.20;;;;;;4955730;28;20424;-73
2022/01/12 13:44:02;;;;;;;135.45;47.53;;;6.00;61.30;;;;;;4959004;28;20390;-73
2022/01/12 13:46:33;;;;;;;134.35;47.47;;;5.90;64.30;;;;;;4959952;28;20398;-74
2022/01/12 13:51:37;;;;;;;131.47;44.83;;;6.10;64.20;;;;;;4958821;28;20910;-75
2022/01/12 13:54:12;;;;;;;125.47;45.90;;;6.20;60.70;;;;;;4957395;28;20406;-74
2022/01/12 13:56:46;;;;;;;131.50;45.47;;;6.10;61.30;;;;;;4958224;29;20444;-75
2022/01/12 13:59:15;;;;;;;138.15;47.80;;;5.90;63.50;;;;;;4962157;29;20404;-74
2022/01/12 14:01:43;;;;;;;132.80;45.65;;;5.80;66.20;;;;;;4957132;28;20473;-74
2022/01/12 14:04:20;;;;;;;129.68;47.00;;;5.70;67.40;;;;;;4952460;28;20406;-73
2022/01/12 14:06:48;;;;;;;139.65;47.90;;;5.70;68.20;;;;;;4952831;28;20759;-73
2022/01/12 14:09:49;;;;;;;145.53;48.90;;;5.70;69.00;;;;;;4952905;28;20406;-73